This is the latest recevied weather packets stored in our database for station/object WA7CUG. If no packets are shown the sender has not sent any weather packets the latest 1 day(s).
| Time | Temp. | Humidity | Pressure | Rain* | Wind** | Luminosity | Snow |
|---|---|---|---|---|---|---|---|
| 1778022496 | 28.89° C | 28% | 1010.2 hPa | 0 mm | 1.34 m/s, 99° | 521 W/m² | - |
| 1778022193 | 29.44° C | 26% | 1010.2 hPa | 0 mm | 0.45 m/s, 168° | 526 W/m² | - |
| 1778021889 | 30.56° C | 25% | 1010.2 hPa | 0 mm | 0.45 m/s, 175° | 538 W/m² | - |
| 1778021587 | 31.11° C | 27% | 1010.5 hPa | 0 mm | 0 m/s | 548 W/m² | - |
| 1778021281 | 31.11° C | 26% | 1010.4 hPa | 0 mm | 0.45 m/s, 182° | 559 W/m² | - |
| 1778020980 | 30° C | 32% | 1010.7 hPa | 0 mm | 0 m/s | 567 W/m² | - |
| 1778020677 | 30° C | 27% | 1010.7 hPa | 0 mm | 0 m/s | 576 W/m² | - |
| 1778020374 | 29.44° C | 27% | 1010.6 hPa | 0 mm | 0 m/s | 585 W/m² | - |
| 1778020069 | 29.44° C | 25% | 1010.6 hPa | 0 mm | 0 m/s | 592 W/m² | - |
| 1778019766 | 28.33° C | 26% | 1010.7 hPa | 0 mm | 0 m/s | 601 W/m² | - |
| 1778019463 | 28.33° C | 28% | 1010.8 hPa | 0 mm | 1.34 m/s, 45° | 612 W/m² | - |
| 1778019160 | 28.33° C | 27% | 1010.7 hPa | 0 mm | 0.45 m/s, 167° | 618 W/m² | - |
| 1778018856 | 27.78° C | 28% | 1011 hPa | 0 mm | 0.89 m/s, 173° | 626 W/m² | - |
| 1778018554 | 27.78° C | 27% | 1011.1 hPa | 0 mm | 1.34 m/s, 160° | 631 W/m² | - |
| 1778018252 | 27.78° C | 26% | 1011.1 hPa | 0 mm | 1.34 m/s, 144° | 638 W/m² | - |
| 1778017949 | 27.78° C | 29% | 1011.1 hPa | 0 mm | 0.89 m/s, 98° | 644 W/m² | - |
| 1778017647 | 27.78° C | 28% | 1011.2 hPa | 0 mm | 0.45 m/s, 114° | 649 W/m² | - |
| 1778017344 | 27.78° C | 26% | 1011.4 hPa | 0 mm | 1.34 m/s, 159° | 655 W/m² | - |
| 1778017041 | 27.78° C | 28% | 1011.3 hPa | 0 mm | 0.45 m/s, 145° | 660 W/m² | - |
| 1778016739 | 28.33° C | 25% | 1011.4 hPa | 0 mm | 0.89 m/s, 123° | 664 W/m² | - |
| 1778016434 | 28.33° C | 27% | 1011.4 hPa | 0 mm | 0.45 m/s, 116° | 669 W/m² | - |
| 1778016132 | 27.78° C | 28% | 1011.7 hPa | 0 mm | 0.45 m/s, 188° | 673 W/m² | - |
| 1778015829 | 27.78° C | 32% | 1011.5 hPa | 0 mm | 0.45 m/s, 114° | 676 W/m² | - |
| 1778015526 | 27.22° C | 29% | 1011.5 hPa | 0 mm | 0 m/s | 681 W/m² | - |
| 1778015222 | 27.78° C | 28% | 1011.8 hPa | 0 mm | 1.34 m/s, 151° | 683 W/m² | - |
* Rain latest hour (hover to see other rain measurements)
** Current wind speed in m/s (hover to see current wind gust speed)